createdAt,value
2019-02-17T00:00:38.369Z,8.03
2019-02-17T00:03:13.591Z,7.03
2019-02-17T00:05:48.900Z,7.07
2019-02-17T00:08:24.032Z,8.23
2019-02-17T00:10:59.402Z,9.10
2019-02-17T00:13:34.616Z,6.23
2019-02-17T00:16:09.852Z,6.97
2019-02-17T00:18:45.064Z,9.63
2019-02-17T00:21:20.294Z,7.67
2019-02-17T00:23:55.569Z,8.43
2019-02-17T00:26:30.756Z,7.47
2019-02-17T00:29:06.013Z,7.37
2019-02-17T00:31:41.162Z,7.50
2019-02-17T00:34:16.440Z,6.80
2019-02-17T00:36:51.668Z,8.43
2019-02-17T00:39:26.883Z,7.13
2019-02-17T00:42:02.053Z,7.40
2019-02-17T00:44:37.260Z,8.47
2019-02-17T00:47:12.404Z,7.37
2019-02-17T00:49:47.621Z,6.87
2019-02-17T00:52:22.790Z,7.53
2019-02-17T00:54:58.016Z,8.43
2019-02-17T00:57:33.193Z,6.23
2019-02-17T01:00:08.889Z,8.47
2019-02-17T01:02:44.132Z,6.93
2019-02-17T01:05:19.339Z,6.97
2019-02-17T01:07:54.560Z,11.07
2019-02-17T01:10:29.700Z,7.47
2019-02-17T01:13:05.034Z,8.23
2019-02-17T01:15:40.164Z,8.37
2019-02-17T01:18:15.335Z,7.37
2019-02-17T01:20:50.603Z,7.27
2019-02-17T01:23:25.821Z,7.30
2019-02-17T01:26:01.016Z,7.20
2019-02-17T01:28:36.210Z,7.33
2019-02-17T01:31:11.369Z,6.83
2019-02-17T01:33:46.663Z,7.67
2019-02-17T01:36:21.874Z,8.13
2019-02-17T01:38:57.190Z,6.83
2019-02-17T01:41:32.452Z,8.57
2019-02-17T01:44:07.705Z,7.77
2019-02-17T01:46:42.937Z,7.70
2019-02-17T01:49:18.159Z,9.00
2019-02-17T01:51:53.316Z,7.90
2019-02-17T01:54:28.653Z,7.87
2019-02-17T01:57:03.860Z,7.97
2019-02-17T01:59:39.026Z,8.57
2019-02-17T02:02:14.082Z,7.77
2019-02-17T02:04:49.293Z,8.87
2019-02-17T02:07:24.516Z,7.77
2019-02-17T02:09:59.743Z,6.80
2019-02-17T02:12:34.880Z,7.13
2019-02-17T02:15:10.603Z,7.93
2019-02-17T02:17:45.821Z,7.93
2019-02-17T02:20:21.039Z,7.40
2019-02-17T02:22:56.312Z,7.63
2019-02-17T02:25:31.531Z,9.30
2019-02-17T02:28:06.731Z,8.03
2019-02-17T02:30:41.970Z,7.03
2019-02-17T02:33:17.113Z,8.00
2019-02-17T02:35:52.333Z,7.83
2019-02-17T02:38:27.566Z,7.17
2019-02-17T02:41:02.794Z,8.27
2019-02-17T02:43:37.955Z,7.97
2019-02-17T02:46:13.253Z,8.30
2019-02-17T02:48:48.528Z,8.23
2019-02-17T02:51:23.740Z,7.87
2019-02-17T02:53:59.357Z,7.57
2019-02-17T02:56:34.504Z,7.13
2019-02-17T02:59:09.720Z,7.03
2019-02-17T03:01:45.023Z,7.90
2019-02-17T03:04:20.220Z,8.67
2019-02-17T03:07:00.770Z,7.63
2019-02-17T03:09:35.998Z,7.43
2019-02-17T03:12:11.324Z,8.83
2019-02-17T03:14:46.462Z,8.37
2019-02-17T03:17:21.829Z,7.27
2019-02-17T03:19:56.972Z,7.37
2019-02-17T03:22:32.285Z,8.37
2019-02-17T03:25:07.530Z,6.97
2019-02-17T03:27:42.702Z,7.57
2019-02-17T03:30:18.001Z,8.07
2019-02-17T03:32:53.311Z,9.37
2019-02-17T03:35:28.616Z,7.87
2019-02-17T03:38:03.872Z,8.43
2019-02-17T03:40:39.069Z,8.40
2019-02-17T03:43:14.227Z,7.83
2019-02-17T03:45:49.366Z,8.73
2019-02-17T03:48:24.593Z,7.87
2019-02-17T03:50:59.731Z,8.47
2019-02-17T03:53:34.970Z,8.53
2019-02-17T03:56:10.194Z,8.10
2019-02-17T03:58:45.417Z,9.37
2019-02-17T04:01:20.618Z,8.60
2019-02-17T04:03:55.933Z,9.90
2019-02-17T04:06:31.213Z,7.73
2019-02-17T04:09:08.264Z,9.73
2019-02-17T04:11:43.405Z,7.53
2019-02-17T04:14:18.635Z,8.90
2019-02-17T04:16:53.920Z,8.40
2019-02-17T04:19:29.167Z,8.60
2019-02-17T04:22:04.392Z,8.00
2019-02-17T04:24:39.623Z,7.80
2019-02-17T04:27:14.843Z,7.77
2019-02-17T04:29:50.005Z,8.10
2019-02-17T04:32:25.265Z,9.93
2019-02-17T04:35:00.771Z,9.53
2019-02-17T04:37:35.965Z,7.53
2019-02-17T04:40:11.349Z,8.60
2019-02-17T04:42:46.593Z,7.20
2019-02-17T04:45:21.885Z,8.90
2019-02-17T04:47:57.114Z,7.97
2019-02-17T04:50:32.344Z,8.60
2019-02-17T04:53:07.555Z,8.93
2019-02-17T04:55:42.845Z,8.17
2019-02-17T04:58:17.988Z,8.87
2019-02-17T05:00:53.280Z,9.00
2019-02-17T05:03:28.561Z,7.93
2019-02-17T05:06:03.796Z,10.60
2019-02-17T05:08:38.948Z,7.80
2019-02-17T05:11:14.182Z,7.93
2019-02-17T05:13:49.466Z,8.17
2019-02-17T05:16:24.625Z,9.63
2019-02-17T05:18:59.833Z,9.00
2019-02-17T05:21:35.081Z,8.30
2019-02-17T05:24:10.285Z,7.37
2019-02-17T05:26:45.572Z,7.53
2019-02-17T05:29:20.710Z,8.00
2019-02-17T05:31:55.937Z,7.70
2019-02-17T05:34:31.141Z,7.77
2019-02-17T05:37:06.304Z,10.13
2019-02-17T05:39:41.515Z,8.20
2019-02-17T05:42:16.825Z,8.90
2019-02-17T05:44:52.045Z,9.67
2019-02-17T05:47:27.213Z,7.80
2019-02-17T05:50:02.439Z,8.50
2019-02-17T05:52:37.669Z,8.17
2019-02-17T05:55:12.965Z,8.67
2019-02-17T05:57:48.228Z,8.40
2019-02-17T06:00:27.295Z,7.97
2019-02-17T06:03:02.494Z,8.07
2019-02-17T06:05:37.644Z,9.60
2019-02-17T06:08:12.941Z,9.37
2019-02-17T06:10:48.089Z,8.37
2019-02-17T06:13:23.315Z,11.53
2019-02-17T06:15:58.512Z,7.87
2019-02-17T06:18:33.741Z,8.83
2019-02-17T06:21:08.970Z,8.87
2019-02-17T06:23:44.186Z,8.47
2019-02-17T06:26:19.508Z,9.07
2019-02-17T06:28:54.677Z,7.97
2019-02-17T06:31:29.873Z,8.80
2019-02-17T06:34:05.020Z,8.07
2019-02-17T06:36:40.923Z,8.53
2019-02-17T06:39:16.436Z,8.07
2019-02-17T06:41:51.577Z,8.17
2019-02-17T06:44:26.734Z,8.20
2019-02-17T06:47:05.516Z,8.30
2019-02-17T06:49:40.744Z,8.27
2019-02-17T06:52:15.962Z,10.40
2019-02-17T06:55:09.134Z,9.30
2019-02-17T06:57:44.372Z,7.60
2019-02-17T07:00:26.769Z,7.83
2019-02-17T07:03:02.005Z,10.93
2019-02-17T07:05:56.669Z,9.83
2019-02-17T07:08:31.776Z,9.93
2019-02-17T07:11:07.037Z,10.40
2019-02-17T07:13:42.238Z,9.97
2019-02-17T07:16:18.972Z,10.23
2019-02-17T07:18:54.116Z,9.23
2019-02-17T07:21:29.271Z,9.37
2019-02-17T07:24:04.421Z,8.00
2019-02-17T07:26:39.716Z,8.77
2019-02-17T07:29:16.758Z,8.37
2019-02-17T07:31:51.786Z,9.00
2019-02-17T07:34:26.983Z,8.70
2019-02-17T07:37:02.205Z,10.60
2019-02-17T07:39:37.348Z,10.33
2019-02-17T07:42:12.574Z,9.20
2019-02-17T07:44:47.796Z,9.97
2019-02-17T07:47:23.022Z,12.07
2019-02-17T07:49:58.180Z,8.93
2019-02-17T07:52:34.313Z,9.57
2019-02-17T07:55:09.603Z,9.07
2019-02-17T07:57:44.828Z,9.47
2019-02-17T08:00:19.975Z,9.77
2019-02-17T08:02:55.331Z,9.10
2019-02-17T08:05:30.725Z,9.67
2019-02-17T08:08:05.942Z,9.73
2019-02-17T08:10:41.097Z,10.23
2019-02-17T08:13:16.260Z,9.47
2019-02-17T08:15:51.419Z,10.00
2019-02-17T08:18:26.650Z,10.30
2019-02-17T08:21:01.856Z,10.97
2019-02-17T08:23:37.089Z,8.67
2019-02-17T08:26:12.299Z,8.90
2019-02-17T08:28:47.602Z,9.23
2019-02-17T08:31:22.873Z,10.50
2019-02-17T08:33:58.190Z,8.40
2019-02-17T08:36:33.459Z,10.20
2019-02-17T08:39:08.686Z,8.17
2019-02-17T08:41:43.969Z,8.67
2019-02-17T08:44:19.301Z,10.17
2019-02-17T08:46:54.438Z,8.50
2019-02-17T08:49:29.680Z,9.17
2019-02-17T08:52:04.815Z,8.37
2019-02-17T08:54:40.028Z,9.23
2019-02-17T08:57:15.300Z,7.83
2019-02-17T08:59:50.696Z,8.70
2019-02-17T09:02:25.987Z,8.33
2019-02-17T09:05:01.287Z,8.27
2019-02-17T09:07:36.522Z,7.77
2019-02-17T09:10:12.189Z,8.03
2019-02-17T09:12:47.396Z,8.80
2019-02-17T09:15:22.618Z,8.13
2019-02-17T09:17:57.752Z,7.63
2019-02-17T09:20:32.917Z,8.03
2019-02-17T09:23:08.074Z,7.50
2019-02-17T09:25:43.292Z,7.93
2019-02-17T09:28:18.435Z,7.37
2019-02-17T09:30:53.738Z,7.17
2019-02-17T09:33:28.953Z,9.30
2019-02-17T09:36:04.172Z,7.30
2019-02-17T09:38:39.369Z,7.33
2019-02-17T09:41:14.700Z,8.50
2019-02-17T09:43:50.009Z,7.23
2019-02-17T09:46:25.277Z,7.13
2019-02-17T09:49:00.496Z,7.27
2019-02-17T09:51:35.725Z,7.63
2019-02-17T09:54:10.937Z,6.37
2019-02-17T09:56:46.220Z,7.40
2019-02-17T09:59:21.437Z,6.87
2019-02-17T10:01:56.690Z,7.57
2019-02-17T10:04:31.972Z,6.93
2019-02-17T10:07:07.304Z,6.87
2019-02-17T10:09:42.475Z,7.20
2019-02-17T10:12:17.685Z,6.70
2019-02-17T10:14:52.901Z,7.17
2019-02-17T10:17:28.215Z,6.50
2019-02-17T10:20:03.429Z,7.07
2019-02-17T10:22:38.728Z,7.67
2019-02-17T10:25:14.057Z,6.97
2019-02-17T10:27:49.281Z,7.07
2019-02-17T10:30:24.448Z,6.70
2019-02-17T10:32:59.773Z,6.90
2019-02-17T10:35:34.981Z,7.33
2019-02-17T10:38:10.218Z,6.37
2019-02-17T10:40:45.528Z,7.90
2019-02-17T10:43:20.751Z,6.63
2019-02-17T10:45:56.036Z,7.47
2019-02-17T10:48:31.305Z,6.73
2019-02-17T10:51:06.516Z,7.70
2019-02-17T10:53:41.670Z,7.10
2019-02-17T10:56:16.876Z,6.67
2019-02-17T10:58:52.181Z,7.00
2019-02-17T11:01:27.468Z,6.60
2019-02-17T11:04:07.773Z,6.70
2019-02-17T11:06:42.993Z,8.43
2019-02-17T11:09:20.188Z,6.90
2019-02-17T11:11:55.434Z,8.57
2019-02-17T11:14:30.744Z,8.90
2019-02-17T11:17:05.908Z,7.00
2019-02-17T11:19:41.166Z,6.33
2019-02-17T11:22:22.943Z,8.17
2019-02-17T11:24:53.152Z,7.67
2019-02-17T11:27:28.289Z,6.27
2019-02-17T11:30:05.397Z,6.13
2019-02-17T11:32:40.389Z,6.67
2019-02-17T11:35:15.633Z,7.17
2019-02-17T11:37:50.900Z,6.33
2019-02-17T11:40:26.152Z,6.70
2019-02-17T11:43:02.497Z,8.30
2019-02-17T11:45:37.717Z,6.00
2019-02-17T11:48:12.929Z,6.60
2019-02-17T11:50:48.161Z,6.10
2019-02-17T11:53:23.301Z,8.08
2019-02-17T11:55:58.536Z,7.77
2019-02-17T11:58:33.869Z,6.17
2019-02-17T12:01:09.104Z,8.03
2019-02-17T12:03:44.380Z,7.60
2019-02-17T12:06:19.553Z,8.00
2019-02-17T12:08:54.764Z,7.17
2019-02-17T12:11:29.921Z,7.60
2019-02-17T12:14:05.152Z,8.93
2019-02-17T12:16:40.326Z,8.17
2019-02-17T12:19:16.482Z,7.63
2019-02-17T12:21:56.875Z,9.10
2019-02-17T12:24:40.163Z,9.97
2019-02-17T12:27:52.865Z,7.30
2019-02-17T12:30:28.137Z,8.03
2019-02-17T12:33:03.327Z,8.53
2019-02-17T12:35:38.608Z,7.57
2019-02-17T12:38:13.940Z,7.63
2019-02-17T12:40:49.069Z,8.43
2019-02-17T12:43:24.229Z,7.73
2019-02-17T12:45:59.595Z,8.80
2019-02-17T12:48:34.889Z,9.87
2019-02-17T12:51:10.027Z,9.17
2019-02-17T12:53:45.257Z,7.57
2019-02-17T12:56:20.393Z,8.10
2019-02-17T12:58:55.608Z,13.53
2019-02-17T13:01:30.904Z,10.33
2019-02-17T13:04:06.139Z,9.30
2019-02-17T13:06:41.301Z,11.60
2019-02-17T13:09:16.712Z,10.27
2019-02-17T13:11:51.980Z,9.33
2019-02-17T13:14:27.259Z,6.20
2019-02-17T13:17:02.453Z,5.83
2019-02-17T13:19:37.690Z,5.10
2019-02-17T13:22:12.949Z,6.37
2019-02-17T13:24:48.201Z,6.77
2019-02-17T13:27:23.624Z,7.00
2019-02-17T13:29:58.843Z,6.07
2019-02-17T13:32:33.997Z,5.63
2019-02-17T13:35:09.227Z,5.70
2019-02-17T13:37:44.454Z,5.43
2019-02-17T13:40:19.786Z,7.10
2019-02-17T13:42:55.058Z,5.87
2019-02-17T13:45:30.421Z,4.47
2019-02-17T13:48:06.228Z,6.27
2019-02-17T13:50:41.441Z,5.07
2019-02-17T13:53:16.596Z,7.27
2019-02-17T13:55:52.065Z,6.10
2019-02-17T13:58:27.331Z,4.43
2019-02-17T14:01:02.593Z,5.13
2019-02-17T14:03:37.762Z,6.00
2019-02-17T14:06:13.055Z,5.77
2019-02-17T14:08:48.188Z,5.77
2019-02-17T14:11:23.420Z,5.20
2019-02-17T14:13:58.620Z,5.03
2019-02-17T14:16:34.004Z,6.00
2019-02-17T14:19:09.145Z,5.13
2019-02-17T14:21:44.382Z,5.70
2019-02-17T14:24:19.580Z,4.53
2019-02-17T14:26:54.745Z,4.37
2019-02-17T14:29:29.890Z,6.27
2019-02-17T14:32:05.060Z,5.50
2019-02-17T14:34:40.345Z,5.43
2019-02-17T14:37:15.510Z,5.33
2019-02-17T14:39:50.666Z,6.37
2019-02-17T14:42:25.973Z,4.50
2019-02-17T14:45:01.120Z,4.60
2019-02-17T14:47:36.292Z,4.43
2019-02-17T14:50:12.513Z,4.37
2019-02-17T14:52:48.002Z,4.90
2019-02-17T14:55:23.248Z,4.63
2019-02-17T14:58:05.088Z,5.60
2019-02-17T15:00:35.227Z,4.27
2019-02-17T15:03:10.452Z,4.70
2019-02-17T15:05:45.760Z,5.60
2019-02-17T15:08:20.971Z,3.73
2019-02-17T15:10:56.203Z,4.97
2019-02-17T15:13:31.439Z,4.50
2019-02-17T15:16:06.716Z,4.23
2019-02-17T15:18:41.971Z,5.77
2019-02-17T15:21:17.202Z,4.47
2019-02-17T15:23:52.505Z,4.70
2019-02-17T15:26:27.669Z,4.53
2019-02-17T15:29:02.898Z,4.00
2019-02-17T15:31:38.043Z,5.43
2019-02-17T15:34:18.767Z,4.07
2019-02-17T15:36:50.151Z,4.53
2019-02-17T15:39:25.387Z,4.40
2019-02-17T15:42:00.521Z,8.13
2019-02-17T15:44:35.688Z,4.77
2019-02-17T15:47:10.965Z,4.07
2019-02-17T15:49:46.203Z,6.77
2019-02-17T15:52:21.432Z,5.80
2019-02-17T15:54:56.660Z,4.93
2019-02-17T15:57:31.944Z,6.37
2019-02-17T16:00:09.813Z,4.70
2019-02-17T16:02:44.917Z,4.43
2019-02-17T16:05:20.192Z,5.20
2019-02-17T16:07:55.309Z,5.30
2019-02-17T16:10:30.517Z,4.17
2019-02-17T16:13:05.812Z,5.40
2019-02-17T16:15:41.121Z,5.27
2019-02-17T16:18:16.259Z,4.87
2019-02-17T16:20:51.439Z,5.57
2019-02-17T16:23:26.721Z,5.07
2019-02-17T16:26:01.957Z,4.27
2019-02-17T16:28:37.191Z,4.70
2019-02-17T16:31:12.454Z,5.33
2019-02-17T16:33:48.010Z,5.03
2019-02-17T16:36:23.274Z,5.10
2019-02-17T16:38:58.412Z,5.43
2019-02-17T16:41:33.644Z,5.20
2019-02-17T16:44:08.867Z,4.20
2019-02-17T16:50:36.456Z,4.87
2019-02-17T16:53:11.708Z,4.73
2019-02-17T16:55:46.839Z,3.57
2019-02-17T16:58:22.085Z,3.83
2019-02-17T17:00:57.306Z,5.07
2019-02-17T17:03:32.484Z,4.23
2019-02-17T17:06:07.696Z,5.13
2019-02-17T17:08:42.930Z,4.77
2019-02-17T17:11:18.144Z,4.87
2019-02-17T17:13:53.381Z,5.47
2019-02-17T17:16:28.533Z,4.70
2019-02-17T17:19:03.854Z,5.40
2019-02-17T17:22:05.398Z,4.77
2019-02-17T17:24:40.967Z,5.87
2019-02-17T17:27:16.106Z,4.70
2019-02-17T17:29:52.613Z,4.27
2019-02-17T17:35:40.456Z,6.07
2019-02-17T17:38:15.692Z,5.87
2019-02-17T17:40:50.916Z,5.17
2019-02-17T17:43:26.140Z,4.50
2019-02-17T17:46:01.370Z,4.87
2019-02-17T17:48:36.532Z,5.50
2019-02-17T17:51:12.304Z,4.10
2019-02-17T17:53:47.655Z,4.53
2019-02-17T17:56:22.970Z,4.23
2019-02-17T17:58:58.176Z,4.20
2019-02-17T18:01:33.385Z,4.07
2019-02-17T18:04:08.544Z,4.83
2019-02-17T18:06:43.861Z,4.97
2019-02-17T18:09:19.078Z,5.10
2019-02-17T18:11:54.325Z,5.00
2019-02-17T18:14:29.539Z,5.20
2019-02-17T18:17:04.785Z,6.07
2019-02-17T18:19:40.013Z,4.23
2019-02-17T18:22:15.349Z,5.07
2019-02-17T18:24:50.635Z,6.03
2019-02-17T18:27:25.778Z,5.20
2019-02-17T18:30:00.985Z,4.80
2019-02-17T18:32:36.142Z,4.63
2019-02-17T18:35:19.256Z,5.27
2019-02-17T18:37:48.219Z,4.87
2019-02-17T18:40:23.492Z,5.93
2019-02-17T18:42:58.657Z,6.33
2019-02-17T18:45:33.877Z,6.80
2019-02-17T18:48:09.105Z,8.73
2019-02-17T18:50:44.297Z,6.33
2019-02-17T18:53:19.538Z,7.80
2019-02-17T18:55:54.756Z,6.33
2019-02-17T18:58:29.978Z,6.70
2019-02-17T19:01:05.181Z,6.37
2019-02-17T19:03:40.352Z,5.87
2019-02-17T19:06:15.499Z,7.17
2019-02-17T19:08:50.651Z,7.37
2019-02-17T19:11:25.864Z,8.53
2019-02-17T19:14:01.076Z,8.17
2019-02-17T19:16:36.344Z,6.77
2019-02-17T19:19:11.560Z,5.87
2019-02-17T19:21:46.815Z,7.03
2019-02-17T19:24:22.156Z,8.33
2019-02-17T19:26:57.437Z,7.10
2019-02-17T19:29:32.620Z,8.93
2019-02-17T19:32:07.783Z,9.20
2019-02-17T19:34:43.008Z,7.53
2019-02-17T19:37:18.216Z,9.77
2019-02-17T19:39:53.436Z,8.33
2019-02-17T19:42:28.564Z,8.87
2019-02-17T19:45:03.789Z,8.77
2019-02-17T19:47:38.993Z,8.53
2019-02-17T19:50:14.575Z,8.53
2019-02-17T19:52:49.776Z,8.37
2019-02-17T19:55:24.946Z,8.23
2019-02-17T19:58:00.237Z,8.00
2019-02-17T20:00:35.455Z,8.80
2019-02-17T20:03:20.681Z,8.50
2019-02-17T20:05:58.523Z,7.47
2019-02-17T20:08:33.733Z,8.10
2019-02-17T20:11:08.892Z,8.53
2019-02-17T20:13:44.107Z,7.73
2019-02-17T20:16:19.260Z,7.13
2019-02-17T20:18:54.546Z,6.87
2019-02-17T20:21:29.861Z,6.60
2019-02-17T20:24:05.072Z,7.73
2019-02-17T20:26:40.413Z,7.13
2019-02-17T20:29:15.624Z,6.83
2019-02-17T20:31:50.926Z,7.27
2019-02-17T20:34:26.157Z,6.40
2019-02-17T20:37:01.357Z,6.83
2019-02-17T20:39:36.506Z,7.03
2019-02-17T20:42:11.738Z,7.40
2019-02-17T20:44:46.885Z,6.60
2019-02-17T20:47:22.104Z,7.33
2019-02-17T20:49:57.235Z,8.83
2019-02-17T20:52:32.324Z,6.70
2019-02-17T20:55:07.613Z,10.47
2019-02-17T20:57:42.881Z,6.53
2019-02-17T21:00:18.693Z,8.17
2019-02-17T21:02:53.926Z,8.87
2019-02-17T21:05:29.626Z,8.93
2019-02-17T21:08:05.026Z,7.80
2019-02-17T21:10:40.169Z,7.73
2019-02-17T21:13:15.336Z,6.60
2019-02-17T21:15:50.521Z,8.03
2019-02-17T21:18:25.761Z,7.57
2019-02-17T21:21:00.892Z,7.53
2019-02-17T21:23:36.132Z,7.07
2019-02-17T21:26:11.274Z,7.97
2019-02-17T21:28:46.477Z,8.60
2019-02-17T21:31:21.686Z,7.83
2019-02-17T21:33:56.996Z,7.00
2019-02-17T21:36:32.122Z,7.27
2019-02-17T21:39:07.656Z,7.60
2019-02-17T21:41:42.862Z,6.77
2019-02-17T21:44:18.216Z,6.50
2019-02-17T21:46:53.422Z,8.17
2019-02-17T21:49:28.642Z,7.67
2019-02-17T21:52:03.846Z,7.63
2019-02-17T21:54:39.097Z,9.10
2019-02-17T21:57:14.376Z,8.97
2019-02-17T21:59:49.612Z,6.77
2019-02-17T22:02:24.749Z,8.20
2019-02-17T22:04:59.915Z,8.47
2019-02-17T22:07:35.230Z,7.40
2019-02-17T22:10:12.546Z,6.23
2019-02-17T22:12:47.752Z,9.87
2019-02-17T22:15:23.031Z,7.27
2019-02-17T22:17:58.246Z,7.37
2019-02-17T22:20:33.501Z,7.47
2019-02-17T22:23:08.712Z,7.23
2019-02-17T22:25:43.868Z,8.50
2019-02-17T22:28:19.139Z,10.33
2019-02-17T22:30:54.410Z,8.03
2019-02-17T22:33:29.612Z,7.97
2019-02-17T22:36:04.771Z,7.63
2019-02-17T22:38:39.970Z,8.33
2019-02-17T22:41:15.255Z,7.50
2019-02-17T22:43:50.531Z,7.37
2019-02-17T22:46:25.684Z,8.87
2019-02-17T22:49:00.888Z,8.43
2019-02-17T22:51:36.110Z,8.60
2019-02-17T22:54:11.253Z,7.53
2019-02-17T22:56:46.502Z,8.63
2019-02-17T22:59:21.654Z,9.40
2019-02-17T23:01:57.005Z,8.17
2019-02-17T23:04:32.166Z,7.93
2019-02-17T23:07:07.456Z,8.37
2019-02-17T23:09:42.595Z,8.53
2019-02-17T23:12:17.751Z,8.73
2019-02-17T23:14:52.966Z,9.37
2019-02-17T23:17:28.201Z,7.67
2019-02-17T23:20:03.320Z,8.30
2019-02-17T23:22:38.572Z,8.77
2019-02-17T23:25:13.709Z,8.50
2019-02-17T23:27:48.896Z,7.57
2019-02-17T23:30:24.107Z,9.20
2019-02-17T23:32:59.366Z,7.27
2019-02-17T23:35:34.587Z,7.13
2019-02-17T23:38:09.897Z,7.27
2019-02-17T23:40:45.117Z,7.67
2019-02-17T23:43:20.404Z,7.60
2019-02-17T23:45:55.605Z,8.10
2019-02-17T23:48:30.831Z,7.37
2019-02-17T23:51:06.114Z,8.53
2019-02-17T23:53:41.266Z,7.47
2019-02-17T23:56:16.468Z,7.77
2019-02-17T23:58:51.643Z,7.63
